Terminal Aerodrome Forecast
Issued by NWS

Home | Current Version | Previous Version | Text Only | Print | Product List | Glossary On
Versions: 1 2 3 4 5 6 7 8 9 10 11 12 13 14
000
FTUS41 KBOX 191720
TAFBAF
TAF
KBAF 191720Z 1918/2018 21012KT P6SM SKC
     FM200000 21005KT P6SM SKC
     FM200900 29005KT 4SM BR SCT002
     FM201500 32012G20KT P6SM SKC=

USA.gov is the U.S. government's official web portal to all federal, state and local government web resources and services.